sensor_id;sensor_type;location;lat;lon;timestamp;temperature;humidity
2611;DHT22;5612;51.134;17.058;2022-08-21T00:00:26;21.60;99.90
2611;DHT22;5612;51.134;17.058;2022-08-21T00:02:58;21.60;99.90
2611;DHT22;5612;51.134;17.058;2022-08-21T00:05:29;21.70;99.90
2611;DHT22;5612;51.134;17.058;2022-08-21T00:07:57;21.60;99.90
2611;DHT22;5612;51.134;17.058;2022-08-21T00:10:26;21.70;99.90
2611;DHT22;5612;51.134;17.058;2022-08-21T00:12:55;21.60;99.90
2611;DHT22;5612;51.134;17.058;2022-08-21T00:15:27;21.40;99.90
2611;DHT22;5612;51.134;17.058;2022-08-21T00:17:58;21.30;99.90
2611;DHT22;5612;51.134;17.058;2022-08-21T00:20:27;21.30;99.90
2611;DHT22;5612;51.134;17.058;2022-08-21T00:22:57;21.30;99.90
2611;DHT22;5612;51.134;17.058;2022-08-21T00:25:26;21.30;99.90
2611;DHT22;5612;51.134;17.058;2022-08-21T00:27:55;21.30;99.90
2611;DHT22;5612;51.134;17.058;2022-08-21T00:30:25;21.30;99.90
2611;DHT22;5612;51.134;17.058;2022-08-21T00:32:56;21.30;99.90
2611;DHT22;5612;51.134;17.058;2022-08-21T00:35:29;21.20;99.90
2611;DHT22;5612;51.134;17.058;2022-08-21T00:37:59;21.20;99.90
2611;DHT22;5612;51.134;17.058;2022-08-21T00:40:31;21.20;99.90
2611;DHT22;5612;51.134;17.058;2022-08-21T00:43:02;21.20;99.90
2611;DHT22;5612;51.134;17.058;2022-08-21T00:45:31;21.30;99.90
2611;DHT22;5612;51.134;17.058;2022-08-21T00:48:00;21.20;99.90
2611;DHT22;5612;51.134;17.058;2022-08-21T00:50:33;21.20;99.90
2611;DHT22;5612;51.134;17.058;2022-08-21T00:53:06;21.30;99.90
2611;DHT22;5612;51.134;17.058;2022-08-21T00:55:36;21.20;99.90
2611;DHT22;5612;51.134;17.058;2022-08-21T00:58:06;21.30;99.90
2611;DHT22;5612;51.134;17.058;2022-08-21T01:00:38;21.40;99.90
2611;DHT22;5612;51.134;17.058;2022-08-21T01:03:11;21.40;99.90
2611;DHT22;5612;51.134;17.058;2022-08-21T01:05:43;21.20;99.90
2611;DHT22;5612;51.134;17.058;2022-08-21T01:08:14;21.20;99.90
2611;DHT22;5612;51.134;17.058;2022-08-21T01:10:44;21.10;99.90
2611;DHT22;5612;51.134;17.058;2022-08-21T01:13:18;21.00;99.90
2611;DHT22;5612;51.134;17.058;2022-08-21T01:15:50;21.00;99.90
2611;DHT22;5612;51.134;17.058;2022-08-21T01:18:20;21.10;99.90
2611;DHT22;5612;51.134;17.058;2022-08-21T01:21:01;21.00;99.90
2611;DHT22;5612;51.134;17.058;2022-08-21T01:23:30;20.90;99.90
2611;DHT22;5612;51.134;17.058;2022-08-21T01:25:59;20.90;99.90
2611;DHT22;5612;51.134;17.058;2022-08-21T01:28:31;20.90;99.90
2611;DHT22;5612;51.134;17.058;2022-08-21T01:31:01;21.00;99.90
2611;DHT22;5612;51.134;17.058;2022-08-21T01:33:33;20.80;99.90
2611;DHT22;5612;51.134;17.058;2022-08-21T01:36:04;20.80;99.90
2611;DHT22;5612;51.134;17.058;2022-08-21T01:38:33;20.70;99.90
2611;DHT22;5612;51.134;17.058;2022-08-21T01:41:02;20.60;99.90
2611;DHT22;5612;51.134;17.058;2022-08-21T01:43:31;20.60;99.90
2611;DHT22;5612;51.134;17.058;2022-08-21T01:46:06;20.60;99.90
2611;DHT22;5612;51.134;17.058;2022-08-21T01:48:35;20.60;99.90
2611;DHT22;5612;51.134;17.058;2022-08-21T01:51:06;20.60;99.90
2611;DHT22;5612;51.134;17.058;2022-08-21T01:53:35;20.60;99.90
2611;DHT22;5612;51.134;17.058;2022-08-21T01:56:09;20.50;99.90
2611;DHT22;5612;51.134;17.058;2022-08-21T01:58:39;20.50;99.90
2611;DHT22;5612;51.134;17.058;2022-08-21T02:01:08;20.40;99.90
2611;DHT22;5612;51.134;17.058;2022-08-21T02:03:40;20.40;99.90
2611;DHT22;5612;51.134;17.058;2022-08-21T02:06:14;20.40;99.90
2611;DHT22;5612;51.134;17.058;2022-08-21T02:08:45;20.30;99.90
2611;DHT22;5612;51.134;17.058;2022-08-21T02:11:14;20.20;99.90
2611;DHT22;5612;51.134;17.058;2022-08-21T02:13:43;19.90;99.90
2611;DHT22;5612;51.134;17.058;2022-08-21T02:16:12;19.60;99.90
2611;DHT22;5612;51.134;17.058;2022-08-21T02:18:46;19.70;99.90
2611;DHT22;5612;51.134;17.058;2022-08-21T02:21:16;19.60;99.90
2611;DHT22;5612;51.134;17.058;2022-08-21T02:23:45;19.70;99.90
2611;DHT22;5612;51.134;17.058;2022-08-21T02:26:14;19.80;99.90
2611;DHT22;5612;51.134;17.058;2022-08-21T02:28:43;19.70;99.90
2611;DHT22;5612;51.134;17.058;2022-08-21T02:31:12;19.60;99.90
2611;DHT22;5612;51.134;17.058;2022-08-21T02:33:41;19.50;99.90
2611;DHT22;5612;51.134;17.058;2022-08-21T02:36:10;19.50;99.90
2611;DHT22;5612;51.134;17.058;2022-08-21T02:38:42;19.50;99.90
2611;DHT22;5612;51.134;17.058;2022-08-21T02:41:14;19.60;99.90
2611;DHT22;5612;51.134;17.058;2022-08-21T02:43:43;19.50;99.90
2611;DHT22;5612;51.134;17.058;2022-08-21T02:46:14;19.50;99.90
2611;DHT22;5612;51.134;17.058;2022-08-21T02:48:43;19.50;99.90
2611;DHT22;5612;51.134;17.058;2022-08-21T02:51:16;19.50;99.90
2611;DHT22;5612;51.134;17.058;2022-08-21T02:53:47;19.60;99.90
2611;DHT22;5612;51.134;17.058;2022-08-21T02:56:20;19.70;99.90
2611;DHT22;5612;51.134;17.058;2022-08-21T02:58:51;19.90;99.90
2611;DHT22;5612;51.134;17.058;2022-08-21T03:01:20;20.00;99.90
2611;DHT22;5612;51.134;17.058;2022-08-21T03:03:49;19.90;99.90
2611;DHT22;5612;51.134;17.058;2022-08-21T03:06:19;20.00;99.90
2611;DHT22;5612;51.134;17.058;2022-08-21T03:08:50;20.10;99.90
2611;DHT22;5612;51.134;17.058;2022-08-21T03:11:19;20.00;99.90
2611;DHT22;5612;51.134;17.058;2022-08-21T03:13:48;20.10;99.90
2611;DHT22;5612;51.134;17.058;2022-08-21T03:16:17;20.10;99.90
2611;DHT22;5612;51.134;17.058;2022-08-21T03:18:46;20.10;99.90
2611;DHT22;5612;51.134;17.058;2022-08-21T03:21:15;20.00;99.90
2611;DHT22;5612;51.134;17.058;2022-08-21T03:23:46;20.10;99.90
2611;DHT22;5612;51.134;17.058;2022-08-21T03:26:17;20.10;99.90
2611;DHT22;5612;51.134;17.058;2022-08-21T03:28:47;20.10;99.90
2611;DHT22;5612;51.134;17.058;2022-08-21T03:31:16;20.10;99.90
2611;DHT22;5612;51.134;17.058;2022-08-21T03:33:44;20.10;99.90
2611;DHT22;5612;51.134;17.058;2022-08-21T03:36:15;20.00;99.90
2611;DHT22;5612;51.134;17.058;2022-08-21T03:38:45;20.00;99.90
2611;DHT22;5612;51.134;17.058;2022-08-21T03:41:13;20.10;99.90
2611;DHT22;5612;51.134;17.058;2022-08-21T03:43:43;20.00;99.90
2611;DHT22;5612;51.134;17.058;2022-08-21T03:46:12;20.10;99.90
2611;DHT22;5612;51.134;17.058;2022-08-21T03:48:41;20.20;99.90
2611;DHT22;5612;51.134;17.058;2022-08-21T03:51:10;20.20;99.90
2611;DHT22;5612;51.134;17.058;2022-08-21T03:53:39;20.20;99.90
2611;DHT22;5612;51.134;17.058;2022-08-21T03:56:08;20.20;99.90
2611;DHT22;5612;51.134;17.058;2022-08-21T03:58:37;20.20;99.90
2611;DHT22;5612;51.134;17.058;2022-08-21T04:01:09;20.20;99.90
2611;DHT22;5612;51.134;17.058;2022-08-21T04:03:38;20.10;99.90
2611;DHT22;5612;51.134;17.058;2022-08-21T04:06:07;20.00;99.90
2611;DHT22;5612;51.134;17.058;2022-08-21T04:08:36;20.00;99.90
2611;DHT22;5612;51.134;17.058;2022-08-21T04:11:05;20.00;99.90
2611;DHT22;5612;51.134;17.058;2022-08-21T04:13:34;20.10;99.90
2611;DHT22;5612;51.134;17.058;2022-08-21T04:16:12;20.20;99.90
2611;DHT22;5612;51.134;17.058;2022-08-21T04:18:41;20.20;99.90
2611;DHT22;5612;51.134;17.058;2022-08-21T04:21:11;20.20;99.90
2611;DHT22;5612;51.134;17.058;2022-08-21T04:23:41;20.10;99.90
2611;DHT22;5612;51.134;17.058;2022-08-21T04:26:10;20.10;99.90
2611;DHT22;5612;51.134;17.058;2022-08-21T04:28:39;20.10;99.90
2611;DHT22;5612;51.134;17.058;2022-08-21T04:31:08;20.10;99.90
2611;DHT22;5612;51.134;17.058;2022-08-21T04:33:39;20.10;99.90
2611;DHT22;5612;51.134;17.058;2022-08-21T04:36:08;20.10;99.90
2611;DHT22;5612;51.134;17.058;2022-08-21T04:38:37;20.00;99.90
2611;DHT22;5612;51.134;17.058;2022-08-21T04:41:10;20.00;99.90
2611;DHT22;5612;51.134;17.058;2022-08-21T04:43:39;19.90;99.90
2611;DHT22;5612;51.134;17.058;2022-08-21T04:46:08;19.90;99.90
2611;DHT22;5612;51.134;17.058;2022-08-21T04:48:41;19.90;99.90
2611;DHT22;5612;51.134;17.058;2022-08-21T04:51:11;19.90;99.90
2611;DHT22;5612;51.134;17.058;2022-08-21T04:53:44;20.00;99.90
2611;DHT22;5612;51.134;17.058;2022-08-21T04:56:18;20.00;99.90
2611;DHT22;5612;51.134;17.058;2022-08-21T04:58:48;20.10;99.90
2611;DHT22;5612;51.134;17.058;2022-08-21T05:01:22;20.10;99.90
2611;DHT22;5612;51.134;17.058;2022-08-21T05:03:56;20.00;99.90
2611;DHT22;5612;51.134;17.058;2022-08-21T05:06:28;20.10;99.90
2611;DHT22;5612;51.134;17.058;2022-08-21T05:09:00;20.00;99.90
2611;DHT22;5612;51.134;17.058;2022-08-21T05:11:30;20.00;99.90
2611;DHT22;5612;51.134;17.058;2022-08-21T05:13:58;20.00;99.90
2611;DHT22;5612;51.134;17.058;2022-08-21T05:16:27;20.10;99.90
2611;DHT22;5612;51.134;17.058;2022-08-21T05:19:05;20.10;99.90
2611;DHT22;5612;51.134;17.058;2022-08-21T05:21:35;20.10;99.90
2611;DHT22;5612;51.134;17.058;2022-08-21T05:24:04;20.10;99.90
2611;DHT22;5612;51.134;17.058;2022-08-21T05:26:34;20.00;99.90
2611;DHT22;5612;51.134;17.058;2022-08-21T05:29:12;19.80;99.90
2611;DHT22;5612;51.134;17.058;2022-08-21T05:31:42;19.80;99.90
2611;DHT22;5612;51.134;17.058;2022-08-21T05:34:13;19.70;99.90
2611;DHT22;5612;51.134;17.058;2022-08-21T05:36:43;19.60;99.90
2611;DHT22;5612;51.134;17.058;2022-08-21T05:39:12;19.60;99.90
2611;DHT22;5612;51.134;17.058;2022-08-21T05:41:42;19.60;99.90
2611;DHT22;5612;51.134;17.058;2022-08-21T05:44:10;19.60;99.90
2611;DHT22;5612;51.134;17.058;2022-08-21T05:46:39;19.70;99.90
2611;DHT22;5612;51.134;17.058;2022-08-21T05:49:08;19.70;99.90
2611;DHT22;5612;51.134;17.058;2022-08-21T05:51:39;19.60;99.90
2611;DHT22;5612;51.134;17.058;2022-08-21T05:54:08;19.70;99.90
2611;DHT22;5612;51.134;17.058;2022-08-21T05:56:37;19.70;99.90
2611;DHT22;5612;51.134;17.058;2022-08-21T05:59:05;19.80;99.90
2611;DHT22;5612;51.134;17.058;2022-08-21T06:01:35;19.90;99.90
2611;DHT22;5612;51.134;17.058;2022-08-21T06:04:04;19.80;99.90
2611;DHT22;5612;51.134;17.058;2022-08-21T06:06:33;19.90;99.90
2611;DHT22;5612;51.134;17.058;2022-08-21T06:09:05;19.90;99.90
2611;DHT22;5612;51.134;17.058;2022-08-21T06:11:34;19.80;99.90
2611;DHT22;5612;51.134;17.058;2022-08-21T06:14:03;19.90;99.90
2611;DHT22;5612;51.134;17.058;2022-08-21T06:16:33;19.80;99.90
2611;DHT22;5612;51.134;17.058;2022-08-21T06:19:02;19.70;99.90
2611;DHT22;5612;51.134;17.058;2022-08-21T06:21:31;19.60;99.90
2611;DHT22;5612;51.134;17.058;2022-08-21T06:24:00;19.60;99.90
2611;DHT22;5612;51.134;17.058;2022-08-21T06:26:30;19.50;99.90
2611;DHT22;5612;51.134;17.058;2022-08-21T06:28:59;19.50;99.90
2611;DHT22;5612;51.134;17.058;2022-08-21T06:31:28;19.50;99.90
2611;DHT22;5612;51.134;17.058;2022-08-21T06:33:57;19.60;99.90
2611;DHT22;5612;51.134;17.058;2022-08-21T06:36:26;19.50;99.90
2611;DHT22;5612;51.134;17.058;2022-08-21T06:38:54;19.50;99.90
2611;DHT22;5612;51.134;17.058;2022-08-21T06:41:24;19.50;99.90
2611;DHT22;5612;51.134;17.058;2022-08-21T06:43:55;19.50;99.90
2611;DHT22;5612;51.134;17.058;2022-08-21T06:46:26;19.40;99.90
2611;DHT22;5612;51.134;17.058;2022-08-21T06:48:56;19.40;99.90
2611;DHT22;5612;51.134;17.058;2022-08-21T06:51:25;19.20;99.90
2611;DHT22;5612;51.134;17.058;2022-08-21T06:53:55;19.00;99.90
2611;DHT22;5612;51.134;17.058;2022-08-21T06:56:25;18.90;99.90
2611;DHT22;5612;51.134;17.058;2022-08-21T06:58:56;18.80;99.90
2611;DHT22;5612;51.134;17.058;2022-08-21T07:01:26;18.70;99.90
2611;DHT22;5612;51.134;17.058;2022-08-21T07:03:55;18.70;99.90
2611;DHT22;5612;51.134;17.058;2022-08-21T07:06:24;18.60;99.90
2611;DHT22;5612;51.134;17.058;2022-08-21T07:08:55;18.60;99.90
2611;DHT22;5612;51.134;17.058;2022-08-21T07:11:25;18.60;99.90
2611;DHT22;5612;51.134;17.058;2022-08-21T07:13:55;18.60;99.90
2611;DHT22;5612;51.134;17.058;2022-08-21T07:16:24;18.50;99.90
2611;DHT22;5612;51.134;17.058;2022-08-21T07:18:53;18.30;99.90
2611;DHT22;5612;51.134;17.058;2022-08-21T07:21:22;18.20;99.90
2611;DHT22;5612;51.134;17.058;2022-08-21T07:23:52;18.10;99.90
2611;DHT22;5612;51.134;17.058;2022-08-21T07:26:22;17.90;99.90
2611;DHT22;5612;51.134;17.058;2022-08-21T07:28:51;18.00;99.90
2611;DHT22;5612;51.134;17.058;2022-08-21T07:31:24;17.80;99.90
2611;DHT22;5612;51.134;17.058;2022-08-21T07:33:53;17.80;99.90
2611;DHT22;5612;51.134;17.058;2022-08-21T07:36:23;17.80;99.90
2611;DHT22;5612;51.134;17.058;2022-08-21T07:38:52;17.70;99.90
2611;DHT22;5612;51.134;17.058;2022-08-21T07:41:24;17.80;99.90
2611;DHT22;5612;51.134;17.058;2022-08-21T07:43:54;17.60;99.90
2611;DHT22;5612;51.134;17.058;2022-08-21T07:46:26;17.50;99.90
2611;DHT22;5612;51.134;17.058;2022-08-21T07:48:55;17.40;99.90
2611;DHT22;5612;51.134;17.058;2022-08-21T07:51:27;17.40;99.90
2611;DHT22;5612;51.134;17.058;2022-08-21T07:53:58;17.30;99.90
2611;DHT22;5612;51.134;17.058;2022-08-21T07:56:27;17.40;99.90
2611;DHT22;5612;51.134;17.058;2022-08-21T07:58:56;17.30;99.90
2611;DHT22;5612;51.134;17.058;2022-08-21T08:01:26;17.40;99.90
2611;DHT22;5612;51.134;17.058;2022-08-21T08:03:55;17.40;99.90
2611;DHT22;5612;51.134;17.058;2022-08-21T08:06:25;17.50;99.90
2611;DHT22;5612;51.134;17.058;2022-08-21T08:08:54;17.50;99.90
2611;DHT22;5612;51.134;17.058;2022-08-21T08:11:23;17.60;99.90
2611;DHT22;5612;51.134;17.058;2022-08-21T08:13:52;17.70;99.90
2611;DHT22;5612;51.134;17.058;2022-08-21T08:16:21;17.80;99.90
2611;DHT22;5612;51.134;17.058;2022-08-21T08:18:51;17.80;99.90
2611;DHT22;5612;51.134;17.058;2022-08-21T08:21:22;18.00;99.90
2611;DHT22;5612;51.134;17.058;2022-08-21T08:23:50;18.10;99.90
2611;DHT22;5612;51.134;17.058;2022-08-21T08:26:19;18.00;99.90
2611;DHT22;5612;51.134;17.058;2022-08-21T08:28:48;18.00;99.90
2611;DHT22;5612;51.134;17.058;2022-08-21T08:31:18;18.10;99.90
2611;DHT22;5612;51.134;17.058;2022-08-21T08:33:49;18.10;99.90
2611;DHT22;5612;51.134;17.058;2022-08-21T08:36:33;18.20;99.90
2611;DHT22;5612;51.134;17.058;2022-08-21T08:39:07;18.20;99.90
2611;DHT22;5612;51.134;17.058;2022-08-21T08:41:58;18.00;99.90
2611;DHT22;5612;51.134;17.058;2022-08-21T08:44:57;17.80;99.90
2611;DHT22;5612;51.134;17.058;2022-08-21T08:47:30;17.60;99.90
2611;DHT22;5612;51.134;17.058;2022-08-21T08:50:04;17.60;99.90
2611;DHT22;5612;51.134;17.058;2022-08-21T08:52:39;17.80;99.90
2611;DHT22;5612;51.134;17.058;2022-08-21T08:55:19;17.80;99.90
2611;DHT22;5612;51.134;17.058;2022-08-21T08:57:54;17.90;99.90
2611;DHT22;5612;51.134;17.058;2022-08-21T09:00:25;18.10;99.90
2611;DHT22;5612;51.134;17.058;2022-08-21T09:02:58;18.20;99.90
2611;DHT22;5612;51.134;17.058;2022-08-21T09:05:39;18.40;99.90
2611;DHT22;5612;51.134;17.058;2022-08-21T09:08:30;18.30;99.90
2611;DHT22;5612;51.134;17.058;2022-08-21T09:11:05;18.30;99.90
2611;DHT22;5612;51.134;17.058;2022-08-21T09:13:45;18.50;99.90
2611;DHT22;5612;51.134;17.058;2022-08-21T09:16:27;18.60;99.90
2611;DHT22;5612;51.134;17.058;2022-08-21T09:19:06;18.70;99.90
2611;DHT22;5612;51.134;17.058;2022-08-21T09:21:47;18.90;99.90
2611;DHT22;5612;51.134;17.058;2022-08-21T09:24:32;18.80;99.90
2611;DHT22;5612;51.134;17.058;2022-08-21T09:27:07;18.90;99.90
2611;DHT22;5612;51.134;17.058;2022-08-21T09:29:39;18.80;99.90
2611;DHT22;5612;51.134;17.058;2022-08-21T09:32:13;19.00;99.90
2611;DHT22;5612;51.134;17.058;2022-08-21T09:34:56;18.90;99.90
2611;DHT22;5612;51.134;17.058;2022-08-21T09:37:26;18.50;99.90
2611;DHT22;5612;51.134;17.058;2022-08-21T09:39:58;18.50;99.90
2611;DHT22;5612;51.134;17.058;2022-08-21T09:42:31;18.50;99.90
2611;DHT22;5612;51.134;17.058;2022-08-21T09:45:11;18.30;99.90
2611;DHT22;5612;51.134;17.058;2022-08-21T09:47:41;17.80;99.90
2611;DHT22;5612;51.134;17.058;2022-08-21T09:50:14;17.50;99.90
2611;DHT22;5612;51.134;17.058;2022-08-21T09:52:47;17.50;99.90
2611;DHT22;5612;51.134;17.058;2022-08-21T09:55:33;17.50;99.90
2611;DHT22;5612;51.134;17.058;2022-08-21T09:58:32;17.70;99.90
2611;DHT22;5612;51.134;17.058;2022-08-21T10:01:04;17.50;99.90
2611;DHT22;5612;51.134;17.058;2022-08-21T10:03:35;17.50;99.90
2611;DHT22;5612;51.134;17.058;2022-08-21T10:06:07;17.60;99.90
2611;DHT22;5612;51.134;17.058;2022-08-21T10:08:43;17.50;99.90
2611;DHT22;5612;51.134;17.058;2022-08-21T10:11:16;17.40;99.90
2611;DHT22;5612;51.134;17.058;2022-08-21T10:13:59;17.50;99.90
2611;DHT22;5612;51.134;17.058;2022-08-21T10:16:37;17.70;99.90
2611;DHT22;5612;51.134;17.058;2022-08-21T10:19:17;17.70;99.90
2611;DHT22;5612;51.134;17.058;2022-08-21T10:22:00;17.80;99.90
2611;DHT22;5612;51.134;17.058;2022-08-21T10:24:35;17.90;99.90
2611;DHT22;5612;51.134;17.058;2022-08-21T10:27:16;18.10;99.90
2611;DHT22;5612;51.134;17.058;2022-08-21T10:29:56;18.00;99.90
2611;DHT22;5612;51.134;17.058;2022-08-21T10:32:54;17.90;99.90
2611;DHT22;5612;51.134;17.058;2022-08-21T10:35:28;17.60;99.90
2611;DHT22;5612;51.134;17.058;2022-08-21T10:38:41;17.60;99.90
2611;DHT22;5612;51.134;17.058;2022-08-21T10:41:44;17.40;99.90
2611;DHT22;5612;51.134;17.058;2022-08-21T10:44:25;17.40;99.90
2611;DHT22;5612;51.134;17.058;2022-08-21T10:47:04;17.30;99.90
2611;DHT22;5612;51.134;17.058;2022-08-21T10:49:39;17.70;99.90
2611;DHT22;5612;51.134;17.058;2022-08-21T10:52:33;17.90;99.90
2611;DHT22;5612;51.134;17.058;2022-08-21T10:55:14;18.00;99.90
2611;DHT22;5612;51.134;17.058;2022-08-21T10:57:49;17.90;99.90
2611;DHT22;5612;51.134;17.058;2022-08-21T11:00:22;17.90;99.90
2611;DHT22;5612;51.134;17.058;2022-08-21T11:02:57;17.90;99.90
2611;DHT22;5612;51.134;17.058;2022-08-21T11:05:31;18.00;99.90
2611;DHT22;5612;51.134;17.058;2022-08-21T11:08:03;17.80;99.90
2611;DHT22;5612;51.134;17.058;2022-08-21T11:10:40;17.80;99.90
2611;DHT22;5612;51.134;17.058;2022-08-21T11:13:29;17.70;99.90
2611;DHT22;5612;51.134;17.058;2022-08-21T11:16:05;17.70;99.90
2611;DHT22;5612;51.134;17.058;2022-08-21T11:18:39;17.80;99.90
2611;DHT22;5612;51.134;17.058;2022-08-21T11:21:31;17.80;99.90
2611;DHT22;5612;51.134;17.058;2022-08-21T11:24:12;17.70;99.90
2611;DHT22;5612;51.134;17.058;2022-08-21T11:26:45;17.60;99.90
2611;DHT22;5612;51.134;17.058;2022-08-21T11:29:20;17.60;99.90
2611;DHT22;5612;51.134;17.058;2022-08-21T11:32:17;17.70;99.90
2611;DHT22;5612;51.134;17.058;2022-08-21T11:34:57;17.70;99.90
2611;DHT22;5612;51.134;17.058;2022-08-21T11:37:41;17.40;99.90
2611;DHT22;5612;51.134;17.058;2022-08-21T11:40:24;17.50;99.90
2611;DHT22;5612;51.134;17.058;2022-08-21T11:43:02;17.60;99.90
2611;DHT22;5612;51.134;17.058;2022-08-21T11:45:39;17.70;99.90
2611;DHT22;5612;51.134;17.058;2022-08-21T11:48:30;17.50;99.90
2611;DHT22;5612;51.134;17.058;2022-08-21T11:51:06;17.40;99.90
2611;DHT22;5612;51.134;17.058;2022-08-21T11:53:39;17.50;99.90
2611;DHT22;5612;51.134;17.058;2022-08-21T11:56:21;17.60;99.90
2611;DHT22;5612;51.134;17.058;2022-08-21T11:58:52;17.50;99.90
2611;DHT22;5612;51.134;17.058;2022-08-21T12:01:26;17.70;99.90
2611;DHT22;5612;51.134;17.058;2022-08-21T12:04:01;17.70;99.90
2611;DHT22;5612;51.134;17.058;2022-08-21T12:06:32;17.70;99.90
2611;DHT22;5612;51.134;17.058;2022-08-21T12:09:05;17.70;99.90
2611;DHT22;5612;51.134;17.058;2022-08-21T12:11:47;17.70;98.60
2611;DHT22;5612;51.134;17.058;2022-08-21T12:14:18;17.90;99.90
2611;DHT22;5612;51.134;17.058;2022-08-21T12:16:48;18.10;99.90
2611;DHT22;5612;51.134;17.058;2022-08-21T12:19:30;18.30;91.40
2611;DHT22;5612;51.134;17.058;2022-08-21T12:22:10;18.40;99.90
2611;DHT22;5612;51.134;17.058;2022-08-21T12:24:41;18.50;89.70
2611;DHT22;5612;51.134;17.058;2022-08-21T12:27:20;18.50;51.40
2611;DHT22;5612;51.134;17.058;2022-08-21T12:29:55;18.50;89.70
2611;DHT22;5612;51.134;17.058;2022-08-21T12:32:26;18.40;84.60
2611;DHT22;5612;51.134;17.058;2022-08-21T12:35:07;18.40;91.40
2611;DHT22;5612;51.134;17.058;2022-08-21T12:37:56;18.40;98.20
2611;DHT22;5612;51.134;17.058;2022-08-21T12:40:31;18.50;98.50
2611;DHT22;5612;51.134;17.058;2022-08-21T12:43:02;18.60;96.00
2611;DHT22;5612;51.134;17.058;2022-08-21T12:45:34;18.60;96.90
2611;DHT22;5612;51.134;17.058;2022-08-21T12:48:10;18.70;38.40
2611;DHT22;5612;51.134;17.058;2022-08-21T12:50:46;18.50;66.80
2611;DHT22;5612;51.134;17.058;2022-08-21T12:53:25;18.50;69.30
2611;DHT22;5612;51.134;17.058;2022-08-21T12:56:10;18.80;75.50
2611;DHT22;5612;51.134;17.058;2022-08-21T12:58:40;18.90;63.60
2611;DHT22;5612;51.134;17.058;2022-08-21T13:01:22;18.80;53.00
2611;DHT22;5612;51.134;17.058;2022-08-21T13:03:53;18.50;39.50
2611;DHT22;5612;51.134;17.058;2022-08-21T13:06:36;18.50;99.10
2611;DHT22;5612;51.134;17.058;2022-08-21T13:09:09;18.80;91.00
2611;DHT22;5612;51.134;17.058;2022-08-21T13:11:41;18.90;60.70
2611;DHT22;5612;51.134;17.058;2022-08-21T13:14:20;18.80;46.90
2611;DHT22;5612;51.134;17.058;2022-08-21T13:16:54;19.00;65.50
2611;DHT22;5612;51.134;17.058;2022-08-21T13:19:25;19.10;73.80
2611;DHT22;5612;51.134;17.058;2022-08-21T13:21:55;19.10;73.60
2611;DHT22;5612;51.134;17.058;2022-08-21T13:24:26;19.30;54.60
2611;DHT22;5612;51.134;17.058;2022-08-21T13:27:25;19.40;27.90
2611;DHT22;5612;51.134;17.058;2022-08-21T13:30:03;19.60;39.40
2611;DHT22;5612;51.134;17.058;2022-08-21T13:32:34;19.70;1.00
2611;DHT22;5612;51.134;17.058;2022-08-21T13:35:10;19.60;16.00
2611;DHT22;5612;51.134;17.058;2022-08-21T13:37:40;19.60;36.20
2611;DHT22;5612;51.134;17.058;2022-08-21T13:40:14;19.90;27.30
2611;DHT22;5612;51.134;17.058;2022-08-21T13:42:47;19.70;1.00
2611;DHT22;5612;51.134;17.058;2022-08-21T13:45:22;19.60;21.70
2611;DHT22;5612;51.134;17.058;2022-08-21T13:47:52;19.70;1.00
2611;DHT22;5612;51.134;17.058;2022-08-21T13:50:24;19.60;49.00
2611;DHT22;5612;51.134;17.058;2022-08-21T13:52:58;19.60;22.00
2611;DHT22;5612;51.134;17.058;2022-08-21T13:55:37;19.50;35.00
2611;DHT22;5612;51.134;17.058;2022-08-21T13:58:08;19.30;43.00
2611;DHT22;5612;51.134;17.058;2022-08-21T14:00:46;19.20;80.00
2611;DHT22;5612;51.134;17.058;2022-08-21T14:03:27;19.20;47.10
2611;DHT22;5612;51.134;17.058;2022-08-21T14:05:57;19.30;75.60
2611;DHT22;5612;51.134;17.058;2022-08-21T14:08:31;19.50;57.70
2611;DHT22;5612;51.134;17.058;2022-08-21T14:11:04;19.60;27.30
2611;DHT22;5612;51.134;17.058;2022-08-21T14:13:38;19.70;28.40
2611;DHT22;5612;51.134;17.058;2022-08-21T14:16:17;19.90;50.50
2611;DHT22;5612;51.134;17.058;2022-08-21T14:18:51;19.90;20.10
2611;DHT22;5612;51.134;17.058;2022-08-21T14:21:39;19.90;6.80
2611;DHT22;5612;51.134;17.058;2022-08-21T14:24:11;19.90;2.80
2611;DHT22;5612;51.134;17.058;2022-08-21T14:26:46;20.00;1.00
2611;DHT22;5612;51.134;17.058;2022-08-21T14:29:21;20.00;1.00
2611;DHT22;5612;51.134;17.058;2022-08-21T14:31:55;20.10;2.90
2611;DHT22;5612;51.134;17.058;2022-08-21T14:34:27;20.30;4.30
2611;DHT22;5612;51.134;17.058;2022-08-21T14:37:01;20.30;1.00
2611;DHT22;5612;51.134;17.058;2022-08-21T14:39:30;20.20;15.80
2611;DHT22;5612;51.134;17.058;2022-08-21T14:42:00;20.10;1.00
2611;DHT22;5612;51.134;17.058;2022-08-21T14:44:31;19.90;1.00
2611;DHT22;5612;51.134;17.058;2022-08-21T14:47:00;19.70;1.00
2611;DHT22;5612;51.134;17.058;2022-08-21T14:49:29;19.30;1.00
2611;DHT22;5612;51.134;17.058;2022-08-21T14:51:59;19.30;1.00
2611;DHT22;5612;51.134;17.058;2022-08-21T14:54:32;19.30;20.80
2611;DHT22;5612;51.134;17.058;2022-08-21T14:57:05;19.20;34.90
2611;DHT22;5612;51.134;17.058;2022-08-21T14:59:38;19.20;31.60
2611;DHT22;5612;51.134;17.058;2022-08-21T15:02:09;19.40;54.20
2611;DHT22;5612;51.134;17.058;2022-08-21T15:04:39;19.40;30.90
2611;DHT22;5612;51.134;17.058;2022-08-21T15:07:09;19.50;21.70
2611;DHT22;5612;51.134;17.058;2022-08-21T15:09:38;19.50;21.40
2611;DHT22;5612;51.134;17.058;2022-08-21T15:12:07;19.50;32.00
2611;DHT22;5612;51.134;17.058;2022-08-21T15:14:40;19.50;42.30
2611;DHT22;5612;51.134;17.058;2022-08-21T15:17:10;19.50;43.30
2611;DHT22;5612;51.134;17.058;2022-08-21T15:19:40;19.50;55.00
2611;DHT22;5612;51.134;17.058;2022-08-21T15:22:09;19.40;57.80
2611;DHT22;5612;51.134;17.058;2022-08-21T15:24:45;19.40;89.80
2611;DHT22;5612;51.134;17.058;2022-08-21T15:27:16;19.50;76.60
2611;DHT22;5612;51.134;17.058;2022-08-21T15:29:47;19.30;64.20
2611;DHT22;5612;51.134;17.058;2022-08-21T15:32:19;19.50;92.30
2611;DHT22;5612;51.134;17.058;2022-08-21T15:34:50;19.60;90.00
2611;DHT22;5612;51.134;17.058;2022-08-21T15:37:20;19.60;62.20
2611;DHT22;5612;51.134;17.058;2022-08-21T15:39:49;19.60;67.90
2611;DHT22;5612;51.134;17.058;2022-08-21T15:42:20;19.60;70.40
2611;DHT22;5612;51.134;17.058;2022-08-21T15:44:52;19.70;57.30
2611;DHT22;5612;51.134;17.058;2022-08-21T15:47:25;19.50;52.30
2611;DHT22;5612;51.134;17.058;2022-08-21T15:49:55;19.50;58.70
2611;DHT22;5612;51.134;17.058;2022-08-21T15:52:24;19.60;84.80
2611;DHT22;5612;51.134;17.058;2022-08-21T15:54:53;19.60;77.90
2611;DHT22;5612;51.134;17.058;2022-08-21T15:57:24;19.60;83.50
2611;DHT22;5612;51.134;17.058;2022-08-21T15:59:57;19.60;85.50
2611;DHT22;5612;51.134;17.058;2022-08-21T16:02:33;19.60;77.60
2611;DHT22;5612;51.134;17.058;2022-08-21T16:05:02;19.50;83.30
2611;DHT22;5612;51.134;17.058;2022-08-21T16:07:31;19.50;99.20
2611;DHT22;5612;51.134;17.058;2022-08-21T16:10:00;19.50;99.90
2611;DHT22;5612;51.134;17.058;2022-08-21T16:12:32;19.50;99.90
2611;DHT22;5612;51.134;17.058;2022-08-21T16:15:08;19.50;99.90
2611;DHT22;5612;51.134;17.058;2022-08-21T16:17:48;19.50;99.90
2611;DHT22;5612;51.134;17.058;2022-08-21T16:20:21;19.70;99.90
2611;DHT22;5612;51.134;17.058;2022-08-21T16:22:52;19.60;99.90